VLG5MX LEZL-GMMI
Flight info
| Callsign | VLG5MX |
|---|---|
| Flight time | 1h 10m |
| Altitude | 35000 |
| Route | CLANA DCT KORNO UN857 IBALU UR724 ESS |
| Aircraft | A320/M-SDE3FGHIRWY/LB1 |
Departure
| Time | 2026-05-06 14:53 |
|---|---|
| Airport | Seville Airport (LEZL) |
Arrival
| Time | 2026-05-06 16:03 |
|---|---|
| Airport | Essaouira-Mogador Airport (GMMI) |
| Time | Latitude | Longitude | Altitude | Speed | Heading |
|---|---|---|---|---|---|
| 2026-05-06 14:39 | 37.42256 | -5.89899 | 100 ft | 0 kts | 345° |
| 2026-05-06 14:43 | 37.42249 | -5.89897 | 101 ft | 2 kts | 345° |
| 2026-05-06 14:43 | 37.42233 | -5.89892 | 101 ft | 2 kts | 344° |
| 2026-05-06 14:43 | 37.42217 | -5.89886 | 100 ft | 2 kts | 343° |
| 2026-05-06 14:43 | 37.42202 | -5.89880 | 102 ft | 2 kts | 344° |
| 2026-05-06 14:44 | 37.42186 | -5.89873 | 100 ft | 2 kts | 290° |
| 2026-05-06 14:44 | 37.42189 | -5.89854 | 99 ft | 2 kts | 231° |
| 2026-05-06 14:44 | 37.42197 | -5.89842 | 99 ft | 1 kts | 224° |
| 2026-05-06 14:45 | 37.42198 | -5.89840 | 100 ft | 0 kts | 224° |
| 2026-05-06 14:46 | 37.42186 | -5.89855 | 101 ft | 6 kts | 224° |
| 2026-05-06 14:46 | 37.42144 | -5.89907 | 104 ft | 11 kts | 225° |
| 2026-05-06 14:46 | 37.42089 | -5.89969 | 106 ft | 11 kts | 212° |
| 2026-05-06 14:46 | 37.42049 | -5.90040 | 107 ft | 10 kts | 264° |
| 2026-05-06 14:47 | 37.42021 | -5.90092 | 108 ft | 0 kts | 205° |
| 2026-05-06 14:48 | 37.42019 | -5.90093 | 108 ft | 1 kts | 205° |
| 2026-05-06 14:48 | 37.42006 | -5.90100 | 109 ft | 3 kts | 202° |
| 2026-05-06 14:48 | 37.41984 | -5.90077 | 108 ft | 7 kts | 117° |
| 2026-05-06 14:48 | 37.41980 | -5.89972 | 106 ft | 18 kts | 88° |
| 2026-05-06 14:49 | 37.41982 | -5.89797 | 105 ft | 21 kts | 91° |
| 2026-05-06 14:49 | 37.41981 | -5.89604 | 103 ft | 24 kts | 90° |
| 2026-05-06 14:49 | 37.41982 | -5.89383 | 101 ft | 26 kts | 89° |
| 2026-05-06 14:49 | 37.41983 | -5.89154 | 105 ft | 26 kts | 90° |
| 2026-05-06 14:50 | 37.41982 | -5.88917 | 106 ft | 28 kts | 89° |
| 2026-05-06 14:50 | 37.41984 | -5.88680 | 111 ft | 27 kts | 91° |
| 2026-05-06 14:50 | 37.41982 | -5.88518 | 110 ft | 28 kts | 88° |
| 2026-05-06 14:50 | 37.41986 | -5.88260 | 110 ft | 30 kts | 90° |
| 2026-05-06 14:51 | 37.41986 | -5.87986 | 105 ft | 33 kts | 89° |
| 2026-05-06 14:51 | 37.41988 | -5.87723 | 104 ft | 29 kts | 91° |
| 2026-05-06 14:51 | 37.41982 | -5.87524 | 102 ft | 21 kts | 110° |
| 2026-05-06 14:51 | 37.41913 | -5.87430 | 103 ft | 0 kts | 169° |
| 2026-05-06 14:52 | 37.41906 | -5.87428 | 103 ft | 4 kts | 169° |
| 2026-05-06 14:52 | 37.41852 | -5.87438 | 104 ft | 11 kts | 208° |
| 2026-05-06 14:52 | 37.41802 | -5.87551 | 105 ft | 19 kts | 266° |
| 2026-05-06 14:52 | 37.41801 | -5.87859 | 106 ft | 63 kts | 270° |
| 2026-05-06 14:53 | 37.41798 | -5.88657 | 109 ft | 117 kts | 271° |
| 2026-05-06 14:53 | 37.41788 | -5.89873 | 120 ft | 158 kts | 270° |
| 2026-05-06 14:53 | 37.41846 | -5.91310 | 487 ft | 168 kts | 277° |
| 2026-05-06 14:53 | 37.42053 | -5.92753 | 1096 ft | 168 kts | 281° |
| 2026-05-06 14:54 | 37.42298 | -5.94169 | 1724 ft | 164 kts | 281° |
| 2026-05-06 14:54 | 37.42549 | -5.95624 | 2173 ft | 176 kts | 281° |
| 2026-05-06 14:54 | 37.42815 | -5.97200 | 2576 ft | 194 kts | 281° |
| 2026-05-06 14:54 | 37.43104 | -5.98932 | 3055 ft | 210 kts | 281° |
| 2026-05-06 14:55 | 37.43411 | -6.00804 | 3440 ft | 228 kts | 281° |
| 2026-05-06 14:55 | 37.43489 | -6.02836 | 4006 ft | 238 kts | 259° |
| 2026-05-06 14:55 | 37.42876 | -6.04763 | 4828 ft | 240 kts | 235° |
| 2026-05-06 14:55 | 37.41675 | -6.06222 | 5542 ft | 245 kts | 219° |
| 2026-05-06 14:56 | 37.40278 | -6.07572 | 6096 ft | 262 kts | 218° |
| 2026-05-06 14:56 | 37.38793 | -6.08998 | 6715 ft | 273 kts | 218° |
| 2026-05-06 14:56 | 37.37273 | -6.10452 | 7492 ft | 277 kts | 218° |
| 2026-05-06 14:56 | 37.35729 | -6.11927 | 8291 ft | 280 kts | 218° |
| 2026-05-06 14:57 | 37.34160 | -6.13428 | 9085 ft | 283 kts | 218° |
| 2026-05-06 14:57 | 37.32589 | -6.14933 | 9871 ft | 285 kts | 218° |
| 2026-05-06 14:57 | 37.30991 | -6.16465 | 10431 ft | 296 kts | 218° |
| 2026-05-06 14:57 | 37.29313 | -6.18073 | 10773 ft | 312 kts | 217° |
| 2026-05-06 14:58 | 37.27537 | -6.19774 | 11100 ft | 329 kts | 218° |
| 2026-05-06 14:58 | 37.25706 | -6.21526 | 11407 ft | 343 kts | 217° |
| 2026-05-06 14:58 | 37.23789 | -6.23360 | 11979 ft | 348 kts | 217° |
| 2026-05-06 14:58 | 37.21857 | -6.25206 | 12695 ft | 350 kts | 217° |
| 2026-05-06 14:59 | 37.19914 | -6.27066 | 13381 ft | 353 kts | 218° |
| 2026-05-06 14:59 | 37.17957 | -6.28937 | 13996 ft | 355 kts | 218° |
| 2026-05-06 14:59 | 37.15982 | -6.30823 | 14575 ft | 358 kts | 218° |
| 2026-05-06 14:59 | 37.13996 | -6.32719 | 15138 ft | 360 kts | 218° |
| 2026-05-06 15:00 | 37.11994 | -6.34630 | 15708 ft | 363 kts | 218° |
| 2026-05-06 15:00 | 37.09976 | -6.36554 | 16252 ft | 366 kts | 218° |
| 2026-05-06 15:00 | 37.07941 | -6.38492 | 16803 ft | 369 kts | 218° |
| 2026-05-06 15:00 | 37.05889 | -6.40441 | 17369 ft | 372 kts | 218° |
| 2026-05-06 15:01 | 37.03816 | -6.42411 | 17941 ft | 375 kts | 219° |
| 2026-05-06 15:01 | 37.01703 | -6.44418 | 18475 ft | 379 kts | 219° |
| 2026-05-06 15:01 | 36.99597 | -6.46420 | 19020 ft | 381 kts | 219° |
| 2026-05-06 15:01 | 36.97485 | -6.48429 | 19580 ft | 383 kts | 219° |
| 2026-05-06 15:02 | 36.95359 | -6.50451 | 20139 ft | 385 kts | 219° |
| 2026-05-06 15:02 | 36.93223 | -6.52481 | 20694 ft | 386 kts | 219° |
| 2026-05-06 15:02 | 36.91078 | -6.54513 | 21200 ft | 388 kts | 219° |
| 2026-05-06 15:02 | 36.88923 | -6.56553 | 21699 ft | 390 kts | 219° |
| 2026-05-06 15:03 | 36.86756 | -6.58602 | 22168 ft | 392 kts | 219° |
| 2026-05-06 15:03 | 36.84579 | -6.60657 | 22627 ft | 393 kts | 219° |
| 2026-05-06 15:03 | 36.82393 | -6.62721 | 23091 ft | 395 kts | 219° |
| 2026-05-06 15:03 | 36.80196 | -6.64794 | 23533 ft | 397 kts | 219° |
| 2026-05-06 15:04 | 36.77984 | -6.66878 | 23899 ft | 399 kts | 219° |
| 2026-05-06 15:04 | 36.75771 | -6.68963 | 24269 ft | 399 kts | 219° |
| 2026-05-06 15:04 | 36.73550 | -6.71053 | 24650 ft | 400 kts | 219° |
| 2026-05-06 15:04 | 36.71379 | -6.73095 | 25010 ft | 401 kts | 219° |
| 2026-05-06 15:05 | 36.69151 | -6.75190 | 25374 ft | 402 kts | 219° |
| 2026-05-06 15:05 | 36.66919 | -6.77287 | 25733 ft | 402 kts | 219° |
| 2026-05-06 15:05 | 36.64678 | -6.79385 | 26084 ft | 404 kts | 219° |
| 2026-05-06 15:05 | 36.62432 | -6.81488 | 26434 ft | 405 kts | 219° |
| 2026-05-06 15:06 | 36.60182 | -6.83602 | 26784 ft | 406 kts | 219° |
| 2026-05-06 15:06 | 36.57927 | -6.85718 | 27131 ft | 407 kts | 219° |
| 2026-05-06 15:06 | 36.55667 | -6.87836 | 27463 ft | 408 kts | 219° |
| 2026-05-06 15:06 | 36.53400 | -6.89960 | 27801 ft | 409 kts | 219° |
| 2026-05-06 15:07 | 36.51124 | -6.92090 | 28137 ft | 409 kts | 219° |
| 2026-05-06 15:07 | 36.48852 | -6.94209 | 28616 ft | 407 kts | 219° |
| 2026-05-06 15:07 | 36.46595 | -6.96311 | 29114 ft | 404 kts | 219° |
| 2026-05-06 15:07 | 36.44354 | -6.98399 | 29614 ft | 402 kts | 219° |
| 2026-05-06 15:08 | 36.42126 | -7.00475 | 30097 ft | 399 kts | 219° |
| 2026-05-06 15:08 | 36.39908 | -7.02540 | 30486 ft | 398 kts | 219° |
| 2026-05-06 15:08 | 36.37666 | -7.04626 | 30856 ft | 397 kts | 219° |
| 2026-05-06 15:08 | 36.35462 | -7.06679 | 31205 ft | 396 kts | 219° |
| 2026-05-06 15:09 | 36.33256 | -7.08734 | 31550 ft | 396 kts | 219° |
| 2026-05-06 15:09 | 36.31053 | -7.10784 | 31909 ft | 396 kts | 219° |
| 2026-05-06 15:09 | 36.28850 | -7.12828 | 32252 ft | 395 kts | 219° |
| 2026-05-06 15:09 | 36.26650 | -7.14866 | 32602 ft | 395 kts | 219° |
| 2026-05-06 15:10 | 36.24448 | -7.16900 | 32954 ft | 395 kts | 219° |
| 2026-05-06 15:10 | 36.22248 | -7.18931 | 33312 ft | 394 kts | 219° |
| 2026-05-06 15:10 | 36.20048 | -7.20964 | 33657 ft | 394 kts | 219° |
| 2026-05-06 15:10 | 36.17854 | -7.22995 | 33991 ft | 394 kts | 219° |
| 2026-05-06 15:11 | 36.15664 | -7.25021 | 34260 ft | 393 kts | 219° |
| 2026-05-06 15:11 | 36.13471 | -7.27049 | 34512 ft | 394 kts | 219° |
| 2026-05-06 15:11 | 36.11278 | -7.29075 | 34749 ft | 394 kts | 219° |
| 2026-05-06 15:11 | 36.09080 | -7.31101 | 34914 ft | 395 kts | 219° |
| 2026-05-06 15:12 | 36.06864 | -7.33140 | 34969 ft | 400 kts | 219° |
| 2026-05-06 15:12 | 36.02344 | -7.37297 | 34965 ft | 407 kts | 219° |
| 2026-05-06 15:13 | 35.97793 | -7.41478 | 34969 ft | 408 kts | 219° |
| 2026-05-06 15:13 | 35.93236 | -7.45662 | 34969 ft | 408 kts | 219° |
| 2026-05-06 15:14 | 35.88674 | -7.49837 | 34977 ft | 409 kts | 219° |
| 2026-05-06 15:14 | 35.84104 | -7.54017 | 34968 ft | 409 kts | 219° |
| 2026-05-06 15:15 | 35.79534 | -7.58193 | 34973 ft | 409 kts | 219° |
| 2026-05-06 15:15 | 35.74966 | -7.62371 | 34979 ft | 409 kts | 219° |
| 2026-05-06 15:16 | 35.70388 | -7.66545 | 34983 ft | 410 kts | 219° |
| 2026-05-06 15:16 | 35.65770 | -7.70734 | 34984 ft | 410 kts | 219° |
| 2026-05-06 15:17 | 35.61169 | -7.74904 | 34988 ft | 410 kts | 219° |
| 2026-05-06 15:17 | 35.56572 | -7.79069 | 34984 ft | 411 kts | 219° |
| 2026-05-06 15:18 | 35.51973 | -7.83237 | 34983 ft | 411 kts | 219° |
| 2026-05-06 15:18 | 35.47371 | -7.87408 | 34976 ft | 411 kts | 219° |
| 2026-05-06 15:19 | 35.42758 | -7.91578 | 34981 ft | 412 kts | 219° |
| 2026-05-06 15:19 | 35.38137 | -7.95737 | 34983 ft | 412 kts | 219° |
| 2026-05-06 15:20 | 35.33507 | -7.99903 | 34988 ft | 413 kts | 219° |
| 2026-05-06 15:20 | 35.28886 | -8.04063 | 34982 ft | 413 kts | 219° |
| 2026-05-06 15:21 | 35.24253 | -8.08219 | 34982 ft | 413 kts | 219° |
| 2026-05-06 15:21 | 35.19614 | -8.12375 | 34985 ft | 414 kts | 219° |
| 2026-05-06 15:22 | 35.14970 | -8.16528 | 34989 ft | 414 kts | 219° |
| 2026-05-06 15:22 | 35.10322 | -8.20678 | 34986 ft | 414 kts | 219° |
| 2026-05-06 15:23 | 35.06446 | -8.24142 | 34987 ft | 414 kts | 220° |
| 2026-05-06 15:23 | 35.01797 | -8.28288 | 34978 ft | 414 kts | 219° |
| 2026-05-06 15:24 | 34.97149 | -8.32423 | 34974 ft | 414 kts | 219° |
| 2026-05-06 15:24 | 34.92497 | -8.36560 | 34972 ft | 414 kts | 220° |
| 2026-05-06 15:25 | 34.87805 | -8.40718 | 34975 ft | 414 kts | 219° |
| 2026-05-06 15:25 | 34.83150 | -8.44839 | 34979 ft | 414 kts | 219° |
| 2026-05-06 15:26 | 34.78490 | -8.48966 | 34981 ft | 414 kts | 220° |
| 2026-05-06 15:26 | 34.73829 | -8.53090 | 34984 ft | 415 kts | 219° |
| 2026-05-06 15:27 | 34.69156 | -8.57211 | 34986 ft | 415 kts | 220° |
| 2026-05-06 15:27 | 34.64478 | -8.61330 | 34983 ft | 415 kts | 219° |
| 2026-05-06 15:28 | 34.59799 | -8.65438 | 34988 ft | 415 kts | 220° |
| 2026-05-06 15:28 | 34.55121 | -8.69552 | 34980 ft | 415 kts | 220° |
| 2026-05-06 15:29 | 34.50439 | -8.73666 | 34981 ft | 415 kts | 219° |
| 2026-05-06 15:29 | 34.45696 | -8.77682 | 34979 ft | 418 kts | 213° |
| 2026-05-06 15:30 | 34.40175 | -8.80131 | 34970 ft | 429 kts | 198° |
| 2026-05-06 15:30 | 34.34355 | -8.81755 | 34980 ft | 429 kts | 198° |
| 2026-05-06 15:31 | 34.28538 | -8.83400 | 34992 ft | 429 kts | 198° |
| 2026-05-06 15:31 | 34.22732 | -8.85030 | 34995 ft | 428 kts | 198° |
| 2026-05-06 15:32 | 34.13987 | -8.87490 | 34995 ft | 428 kts | 198° |
| 2026-05-06 15:32 | 34.08200 | -8.89120 | 34992 ft | 427 kts | 198° |
| 2026-05-06 15:33 | 34.02417 | -8.90739 | 34990 ft | 426 kts | 198° |
| 2026-05-06 15:33 | 33.96636 | -8.92341 | 34990 ft | 426 kts | 198° |
| 2026-05-06 15:34 | 33.90862 | -8.93950 | 34987 ft | 425 kts | 198° |
| 2026-05-06 15:34 | 33.85103 | -8.95558 | 34990 ft | 425 kts | 198° |
| 2026-05-06 15:35 | 33.79346 | -8.97168 | 34992 ft | 425 kts | 198° |
| 2026-05-06 15:35 | 33.73592 | -8.98756 | 34983 ft | 424 kts | 198° |
| 2026-05-06 15:36 | 33.67856 | -9.00343 | 34994 ft | 424 kts | 198° |
| 2026-05-06 15:36 | 33.62115 | -9.01944 | 34990 ft | 423 kts | 198° |
| 2026-05-06 15:37 | 33.56389 | -9.03535 | 34980 ft | 422 kts | 198° |
| 2026-05-06 15:37 | 33.50674 | -9.05121 | 34980 ft | 422 kts | 198° |
| 2026-05-06 15:38 | 33.44959 | -9.06695 | 34982 ft | 421 kts | 198° |
| 2026-05-06 15:38 | 33.39255 | -9.08266 | 34988 ft | 420 kts | 198° |
| 2026-05-06 15:39 | 33.33560 | -9.09832 | 34989 ft | 419 kts | 198° |
| 2026-05-06 15:39 | 33.27881 | -9.11385 | 34986 ft | 418 kts | 198° |
| 2026-05-06 15:40 | 33.22219 | -9.12938 | 34984 ft | 417 kts | 198° |
| 2026-05-06 15:40 | 33.16538 | -9.14506 | 34985 ft | 415 kts | 198° |
| 2026-05-06 15:41 | 33.10924 | -9.16054 | 34978 ft | 414 kts | 198° |
| 2026-05-06 15:41 | 33.05317 | -9.17585 | 34972 ft | 413 kts | 198° |
| 2026-05-06 15:42 | 32.99723 | -9.19100 | 34981 ft | 412 kts | 198° |
| 2026-05-06 15:42 | 32.96935 | -9.19859 | 34818 ft | 410 kts | 198° |
| 2026-05-06 15:42 | 32.94156 | -9.20616 | 34235 ft | 409 kts | 198° |
| 2026-05-06 15:43 | 32.91403 | -9.21366 | 33729 ft | 404 kts | 198° |
| 2026-05-06 15:43 | 32.88678 | -9.22109 | 33240 ft | 399 kts | 199° |
| 2026-05-06 15:43 | 32.85987 | -9.22844 | 32762 ft | 394 kts | 199° |
| 2026-05-06 15:43 | 32.83329 | -9.23570 | 32279 ft | 390 kts | 199° |
| 2026-05-06 15:44 | 32.80704 | -9.24285 | 31794 ft | 385 kts | 199° |
| 2026-05-06 15:44 | 32.78100 | -9.24992 | 31306 ft | 382 kts | 199° |
| 2026-05-06 15:44 | 32.75523 | -9.25691 | 30805 ft | 380 kts | 199° |
| 2026-05-06 15:44 | 32.72925 | -9.26394 | 30290 ft | 384 kts | 199° |
| 2026-05-06 15:45 | 32.70308 | -9.27102 | 29738 ft | 387 kts | 199° |
| 2026-05-06 15:45 | 32.67675 | -9.27818 | 29174 ft | 390 kts | 199° |
| 2026-05-06 15:45 | 32.65020 | -9.28542 | 28640 ft | 392 kts | 199° |
| 2026-05-06 15:45 | 32.62359 | -9.29265 | 28078 ft | 391 kts | 199° |
| 2026-05-06 15:46 | 32.59727 | -9.29974 | 27530 ft | 387 kts | 199° |
| 2026-05-06 15:46 | 32.57111 | -9.30678 | 26975 ft | 384 kts | 199° |
| 2026-05-06 15:46 | 32.54515 | -9.31378 | 26440 ft | 382 kts | 199° |
| 2026-05-06 15:46 | 32.51932 | -9.32074 | 25890 ft | 380 kts | 198° |
| 2026-05-06 15:47 | 32.49360 | -9.32769 | 25355 ft | 378 kts | 198° |
| 2026-05-06 15:47 | 32.46765 | -9.33471 | 24808 ft | 377 kts | 198° |
| 2026-05-06 15:47 | 32.44209 | -9.34160 | 24274 ft | 377 kts | 198° |
| 2026-05-06 15:47 | 32.41656 | -9.34852 | 23738 ft | 377 kts | 198° |
| 2026-05-06 15:48 | 32.39098 | -9.35544 | 23147 ft | 377 kts | 198° |
| 2026-05-06 15:48 | 32.36544 | -9.36233 | 22610 ft | 376 kts | 198° |
| 2026-05-06 15:48 | 32.34028 | -9.36908 | 22099 ft | 374 kts | 198° |
| 2026-05-06 15:48 | 32.31520 | -9.37579 | 21598 ft | 372 kts | 197° |
| 2026-05-06 15:49 | 32.28973 | -9.38259 | 21110 ft | 369 kts | 197° |
| 2026-05-06 15:49 | 32.26504 | -9.38919 | 20630 ft | 367 kts | 197° |
| 2026-05-06 15:49 | 32.23994 | -9.39590 | 20164 ft | 364 kts | 197° |
| 2026-05-06 15:49 | 32.21537 | -9.40246 | 19712 ft | 360 kts | 197° |
| 2026-05-06 15:50 | 32.19105 | -9.40897 | 19254 ft | 357 kts | 197° |
| 2026-05-06 15:50 | 32.16686 | -9.41546 | 18806 ft | 355 kts | 197° |
| 2026-05-06 15:50 | 32.14280 | -9.42193 | 18340 ft | 354 kts | 197° |
| 2026-05-06 15:50 | 32.11924 | -9.42827 | 17835 ft | 352 kts | 197° |
| 2026-05-06 15:51 | 32.09546 | -9.43463 | 17365 ft | 350 kts | 196° |
| 2026-05-06 15:51 | 32.07175 | -9.44094 | 16868 ft | 348 kts | 196° |
| 2026-05-06 15:51 | 32.04823 | -9.44722 | 16385 ft | 346 kts | 196° |
| 2026-05-06 15:51 | 32.02481 | -9.45349 | 15880 ft | 344 kts | 196° |
| 2026-05-06 15:52 | 32.00154 | -9.45973 | 15379 ft | 342 kts | 195° |
| 2026-05-06 15:52 | 31.97806 | -9.46603 | 14862 ft | 341 kts | 195° |
| 2026-05-06 15:52 | 31.95490 | -9.47223 | 14353 ft | 340 kts | 195° |
| 2026-05-06 15:52 | 31.93185 | -9.47839 | 13841 ft | 340 kts | 195° |
| 2026-05-06 15:53 | 31.90880 | -9.48452 | 13281 ft | 339 kts | 195° |
| 2026-05-06 15:53 | 31.88591 | -9.49059 | 12770 ft | 337 kts | 195° |
| 2026-05-06 15:53 | 31.86312 | -9.49664 | 12254 ft | 335 kts | 195° |
| 2026-05-06 15:53 | 31.84045 | -9.50266 | 11746 ft | 333 kts | 195° |
| 2026-05-06 15:54 | 31.81790 | -9.50864 | 11234 ft | 332 kts | 195° |
| 2026-05-06 15:54 | 31.79541 | -9.51461 | 10724 ft | 331 kts | 195° |
| 2026-05-06 15:54 | 31.77313 | -9.52051 | 10450 ft | 322 kts | 195° |
| 2026-05-06 15:54 | 31.75169 | -9.52615 | 10328 ft | 310 kts | 195° |
| 2026-05-06 15:55 | 31.73106 | -9.53160 | 10204 ft | 299 kts | 195° |
| 2026-05-06 15:55 | 31.71136 | -9.53683 | 10080 ft | 289 kts | 195° |
| 2026-05-06 15:55 | 31.69208 | -9.54195 | 9943 ft | 280 kts | 196° |
| 2026-05-06 15:55 | 31.67946 | -9.54530 | 9857 ft | 282 kts | 195° |
| 2026-05-06 15:56 | 31.66019 | -9.55043 | 9426 ft | 285 kts | 195° |
| 2026-05-06 15:56 | 31.64086 | -9.55557 | 9060 ft | 283 kts | 196° |
| 2026-05-06 15:56 | 31.62168 | -9.56065 | 8677 ft | 283 kts | 195° |
| 2026-05-06 15:56 | 31.60251 | -9.56572 | 8273 ft | 283 kts | 195° |
| 2026-05-06 15:57 | 31.58341 | -9.57078 | 7991 ft | 279 kts | 195° |
| 2026-05-06 15:57 | 31.56450 | -9.57578 | 7660 ft | 279 kts | 195° |
| 2026-05-06 15:57 | 31.54556 | -9.58079 | 7316 ft | 279 kts | 195° |
| 2026-05-06 15:57 | 31.52642 | -9.58585 | 6904 ft | 281 kts | 194° |
| 2026-05-06 15:58 | 31.50692 | -9.59101 | 6241 ft | 292 kts | 194° |
| 2026-05-06 15:58 | 31.48700 | -9.59624 | 5755 ft | 294 kts | 194° |
| 2026-05-06 15:58 | 31.46701 | -9.60150 | 5336 ft | 294 kts | 193° |
| 2026-05-06 15:58 | 31.44708 | -9.60673 | 4914 ft | 294 kts | 193° |
| 2026-05-06 15:59 | 31.42714 | -9.61199 | 4491 ft | 293 kts | 193° |
| 2026-05-06 15:59 | 31.40784 | -9.61709 | 4082 ft | 284 kts | 193° |
| 2026-05-06 15:59 | 31.38892 | -9.62209 | 3709 ft | 274 kts | 193° |
| 2026-05-06 15:59 | 31.37076 | -9.62688 | 3370 ft | 263 kts | 193° |
| 2026-05-06 16:00 | 31.35315 | -9.63151 | 2994 ft | 256 kts | 192° |
| 2026-05-06 16:00 | 31.33586 | -9.63603 | 2654 ft | 256 kts | 194° |
| 2026-05-06 16:00 | 31.31929 | -9.64335 | 2266 ft | 255 kts | 220° |
| 2026-05-06 16:00 | 31.30955 | -9.65937 | 2038 ft | 233 kts | 263° |
| 2026-05-06 16:01 | 31.31073 | -9.67594 | 1990 ft | 186 kts | 308° |
| 2026-05-06 16:01 | 31.31966 | -9.68358 | 2049 ft | 148 kts | 356° |
| 2026-05-06 16:01 | 31.32890 | -9.68276 | 2052 ft | 120 kts | 11° |
| 2026-05-06 16:01 | 31.33680 | -9.67974 | 2033 ft | 121 kts | 24° |
| 2026-05-06 16:02 | 31.34400 | -9.67428 | 1921 ft | 125 kts | 29° |
| 2026-05-06 16:02 | 31.35166 | -9.66956 | 1574 ft | 125 kts | 17° |
| 2026-05-06 16:02 | 31.36012 | -9.66787 | 1251 ft | 124 kts | 358° |
| 2026-05-06 16:02 | 31.36868 | -9.66956 | 976 ft | 124 kts | 342° |
| 2026-05-06 16:03 | 31.37693 | -9.67319 | 737 ft | 127 kts | 342° |
| 2026-05-06 16:03 | 31.38516 | -9.67674 | 518 ft | 127 kts | 341° |
| 2026-05-06 16:03 | 31.39343 | -9.68042 | 405 ft | 126 kts | 341° |
| 2026-05-06 16:03 | 31.39889 | -9.68279 | 378 ft | 48 kts | 340° |
| 2026-05-06 16:04 | 31.40056 | -9.68399 | 367 ft | 23 kts | 294° |
| 2026-05-06 16:04 | 31.40115 | -9.68575 | 364 ft | 21 kts | 334° |
| 2026-05-06 16:04 | 31.40264 | -9.68641 | 363 ft | 25 kts | 338° |
| 2026-05-06 16:04 | 31.40335 | -9.68722 | 355 ft | 13 kts | 254° |
| 2026-05-06 16:05 | 31.40325 | -9.68751 | 359 ft | 0 kts | 246° |